Time;durP1;ratioP1;P1;durP2;ratioP2;P2;SDS_P1;SDS_P2;PMS_P1;PMS_P2;Temp;Humidity;BMP_temperature;BMP_pressure;BME280_temperature;BME280_humidity;BME280_pressure;Samples;Min_cycle;Max_cycle;Signal;HPM_P1;HPM_P2
2021/05/30 00:00:49;;;;;;;7.75;7.05;;;18.40;71.30;;;;;;5013694;28;20125;-77
2021/05/30 00:03:15;;;;;;;7.50;7.00;;;18.40;71.40;;;;;;5013366;28;20117;-78
2021/05/30 00:05:41;;;;;;;7.65;7.03;;;18.40;71.50;;;;;;5013497;28;20076;-78
2021/05/30 00:08:06;;;;;;;6.32;5.85;;;18.40;71.60;;;;;;5013624;28;20469;-77
2021/05/30 00:10:32;;;;;;;7.65;7.15;;;18.30;71.70;;;;;;5014774;28;20033;-77
2021/05/30 00:12:58;;;;;;;9.35;8.52;;;18.30;71.90;;;;;;5013269;28;20117;-78
2021/05/30 00:15:24;;;;;;;7.38;6.90;;;18.30;72.10;;;;;;5012956;28;20030;-78
2021/05/30 00:17:49;;;;;;;20.30;8.75;;;18.30;72.20;;;;;;5013436;28;20022;-78
2021/05/30 00:20:15;;;;;;;7.93;7.32;;;18.30;72.40;;;;;;5013347;28;20025;-76
2021/05/30 00:22:41;;;;;;;8.75;8.20;;;18.30;72.40;;;;;;5014607;28;20030;-78
2021/05/30 00:25:08;;;;;;;8.43;7.93;;;18.30;72.50;;;;;;5013290;28;20121;-76
2021/05/30 00:27:34;;;;;;;10.75;9.88;;;18.20;72.60;;;;;;5013309;28;20419;-76
2021/05/30 00:30:00;;;;;;;9.23;8.68;;;18.20;72.80;;;;;;5014138;28;20026;-76
2021/05/30 00:32:26;;;;;;;8.27;7.57;;;18.20;73.10;;;;;;5013284;28;20030;-77
2021/05/30 00:34:54;;;;;;;8.57;7.97;;;18.10;73.30;;;;;;5014479;28;20037;-78
2021/05/30 00:37:20;;;;;;;9.43;8.75;;;18.10;73.60;;;;;;5014419;28;20033;-80
2021/05/30 00:39:46;;;;;;;6.18;5.78;;;18.10;73.70;;;;;;5013067;28;20032;-78
2021/05/30 00:42:12;;;;;;;7.78;7.28;;;18.10;74.00;;;;;;5013020;28;20025;-76
2021/05/30 00:44:37;;;;;;;7.18;6.63;;;18.10;73.00;;;;;;5012995;28;20048;-77
2021/05/30 00:47:03;;;;;;;8.02;7.43;;;18.10;72.70;;;;;;5014275;28;20045;-77
2021/05/30 00:49:29;;;;;;;9.68;8.88;;;18.20;72.60;;;;;;5014603;28;20346;-77
2021/05/30 00:51:55;;;;;;;7.38;6.82;;;18.20;72.40;;;;;;5013007;28;20022;-77
2021/05/30 00:54:21;;;;;;;7.97;7.38;;;18.20;72.30;;;;;;5012938;28;20029;-74
2021/05/30 00:56:47;;;;;;;7.40;6.80;;;18.20;72.00;;;;;;5012878;28;20084;-76
2021/05/30 00:59:14;;;;;;;6.47;6.07;;;18.20;72.00;;;;;;5012784;28;20030;-67
2021/05/30 01:01:40;;;;;;;6.68;6.38;;;18.10;72.00;;;;;;5012728;28;20025;-67
2021/05/30 01:04:07;;;;;;;7.68;7.18;;;18.00;71.80;;;;;;5012545;28;20072;-67
2021/05/30 01:06:33;;;;;;;7.40;7.00;;;18.00;71.50;;;;;;5012374;28;20404;-67
2021/05/30 01:09:00;;;;;;;8.02;7.45;;;18.00;71.40;;;;;;5012708;28;20034;-67
2021/05/30 01:11:26;;;;;;;7.40;6.97;;;18.00;71.40;;;;;;5013839;28;20116;-67
2021/05/30 01:13:54;;;;;;;9.45;8.77;;;17.90;71.30;;;;;;5013853;28;20122;-67
2021/05/30 01:16:21;;;;;;;10.70;9.90;;;17.80;71.70;;;;;;5012667;28;20381;-68
2021/05/30 01:18:53;;;;;;;9.77;9.10;;;17.70;72.20;;;;;;5012598;28;20026;-68
2021/05/30 01:21:19;;;;;;;10.43;9.50;;;17.60;72.70;;;;;;5013830;28;20022;-67
2021/05/30 01:23:48;;;;;;;9.88;9.18;;;17.60;72.90;;;;;;5012594;28;20026;-67
2021/05/30 01:26:14;;;;;;;9.25;8.75;;;17.50;73.10;;;;;;5012495;28;20066;-67
2021/05/30 01:28:39;;;;;;;10.25;9.65;;;17.50;73.50;;;;;;5016453;28;20033;-67
2021/05/30 01:31:05;;;;;;;10.52;9.73;;;17.40;73.80;;;;;;5017702;28;20033;-67
2021/05/30 01:33:31;;;;;;;10.50;9.80;;;17.40;74.10;;;;;;5017679;28;20026;-67
2021/05/30 01:35:56;;;;;;;11.43;10.63;;;17.40;74.20;;;;;;5017641;28;20034;-67
2021/05/30 01:38:22;;;;;;;11.68;10.63;;;17.50;74.30;;;;;;5017538;28;20104;-67
2021/05/30 01:40:48;;;;;;;11.68;10.77;;;17.50;74.40;;;;;;5016122;28;20045;-67
2021/05/30 01:43:13;;;;;;;13.13;11.93;;;17.50;74.60;;;;;;5017699;28;20105;-67
2021/05/30 01:45:40;;;;;;;11.90;11.10;;;17.40;74.50;;;;;;5016085;28;20037;-67
2021/05/30 01:48:07;;;;;;;10.23;9.43;;;17.40;74.60;;;;;;5016126;28;20034;-67
2021/05/30 01:50:34;;;;;;;11.65;10.80;;;17.40;74.80;;;;;;5017204;28;20201;-68
2021/05/30 01:53:05;;;;;;;10.60;9.75;;;17.30;74.90;;;;;;5015904;28;20026;-68
2021/05/30 01:55:47;;;;;;;10.75;9.85;;;17.30;75.10;;;;;;5016084;28;20029;-67
2021/05/30 01:58:14;;;;;;;10.35;9.65;;;17.30;75.10;;;;;;5016342;28;20030;-68
2021/05/30 02:00:40;;;;;;;20.55;12.23;;;17.30;75.20;;;;;;5016130;28;20121;-67
2021/05/30 02:03:07;;;;;;;10.20;9.60;;;17.30;75.30;;;;;;5017160;28;20112;-67
2021/05/30 02:05:35;;;;;;;12.60;11.70;;;17.20;75.60;;;;;;5015482;28;20066;-67
2021/05/30 02:08:01;;;;;;;11.32;10.52;;;17.10;75.80;;;;;;5017311;28;20030;-67
2021/05/30 02:10:27;;;;;;;11.77;10.75;;;17.10;75.90;;;;;;5017237;28;20117;-67
2021/05/30 02:12:55;;;;;;;11.95;10.95;;;17.10;76.00;;;;;;5015709;28;20048;-68
2021/05/30 02:15:22;;;;;;;12.00;11.10;;;17.10;76.20;;;;;;5015634;28;20104;-67
2021/05/30 02:17:48;;;;;;;10.15;9.40;;;17.10;76.00;;;;;;5015402;28;20022;-67
2021/05/30 02:20:16;;;;;;;13.50;12.38;;;17.10;76.10;;;;;;5015484;28;20366;-67
2021/05/30 02:22:42;;;;;;;10.27;9.57;;;17.00;76.20;;;;;;5015463;28;20504;-67
2021/05/30 02:25:11;;;;;;;10.77;9.88;;;17.00;76.40;;;;;;5015385;28;20125;-67
2021/05/30 02:27:38;;;;;;;10.27;9.60;;;17.00;76.60;;;;;;5016691;28;20381;-67
2021/05/30 02:30:04;;;;;;;11.80;10.73;;;17.00;76.70;;;;;;5015385;28;20033;-68
2021/05/30 02:32:30;;;;;;;13.27;12.20;;;17.00;76.80;;;;;;5015273;28;20030;-68
2021/05/30 02:34:55;;;;;;;11.32;10.40;;;16.90;77.00;;;;;;5015225;28;20385;-68
2021/05/30 02:37:21;;;;;;;9.90;8.55;;;16.90;77.20;;;;;;5016335;28;20054;-68
2021/05/30 02:39:47;;;;;;;11.52;10.63;;;16.90;77.50;;;;;;5016447;28;20030;-68
2021/05/30 02:42:14;;;;;;;10.25;9.55;;;16.90;77.60;;;;;;5016558;28;20030;-68
2021/05/30 02:44:39;;;;;;;10.88;10.13;;;17.00;77.60;;;;;;5015078;28;20026;-68
2021/05/30 02:47:06;;;;;;;11.27;10.25;;;17.00;77.70;;;;;;5014843;28;20473;-67
2021/05/30 02:49:33;;;;;;;10.43;9.73;;;17.00;77.80;;;;;;5015270;28;20034;-67
2021/05/30 02:52:00;;;;;;;11.73;10.73;;;17.00;77.80;;;;;;5014920;28;20032;-68
2021/05/30 02:54:26;;;;;;;8.90;8.20;;;17.00;77.90;;;;;;5016123;28;20025;-68
2021/05/30 02:56:51;;;;;;;10.30;9.60;;;17.10;77.70;;;;;;5020479;28;20526;-69
2021/05/30 02:59:17;;;;;;;8.27;7.78;;;17.20;77.70;;;;;;5034251;28;20030;-69
2021/05/30 03:01:43;;;;;;;8.43;7.95;;;17.20;77.40;;;;;;5034136;28;20033;-69
2021/05/30 03:04:09;;;;;;;9.40;8.88;;;17.30;77.20;;;;;;5030586;28;20060;-68
2021/05/30 03:06:34;;;;;;;9.30;8.80;;;17.40;76.80;;;;;;5024287;28;20061;-69
2021/05/30 03:09:00;;;;;;;8.88;8.38;;;17.40;76.50;;;;;;5023698;28;20053;-69
2021/05/30 03:11:27;;;;;;;8.00;7.50;;;17.40;76.40;;;;;;5021791;28;20018;-69
2021/05/30 03:13:53;;;;;;;7.78;7.32;;;17.30;76.00;;;;;;5023298;28;20543;-68
2021/05/30 03:16:20;;;;;;;7.88;7.30;;;17.30;76.00;;;;;;5023418;28;20022;-69
2021/05/30 03:18:46;;;;;;;6.82;6.43;;;17.30;75.80;;;;;;5021522;28;20483;-69
2021/05/30 03:21:13;;;;;;;7.35;6.95;;;17.20;75.60;;;;;;5023591;28;20076;-69
2021/05/30 03:23:39;;;;;;;8.63;7.97;;;17.20;75.40;;;;;;5022863;28;20041;-68
2021/05/30 03:26:05;;;;;;;7.50;7.00;;;17.20;75.50;;;;;;5021377;28;20022;-68
2021/05/30 03:28:31;;;;;;;8.00;7.30;;;17.20;75.50;;;;;;5023349;28;20503;-67
2021/05/30 03:30:56;;;;;;;8.20;7.70;;;17.10;75.40;;;;;;5016160;28;20389;-71
2021/05/30 03:33:22;;;;;;;7.50;6.90;;;17.20;75.40;;;;;;5012603;28;20026;-68
2021/05/30 03:35:48;;;;;;;12.05;8.52;;;17.30;75.40;;;;;;5014017;28;20030;-67
2021/05/30 03:38:16;;;;;;;7.82;7.32;;;17.30;75.30;;;;;;5024553;28;20037;-68
2021/05/30 03:40:50;;;;;;;6.95;6.55;;;17.30;75.10;;;;;;5020965;28;20484;-66
2021/05/30 03:43:16;;;;;;;8.23;7.63;;;17.30;74.90;;;;;;5020621;28;20018;-66
2021/05/30 03:45:42;;;;;;;7.80;7.40;;;17.30;74.90;;;;;;5022286;28;20033;-66
2021/05/30 03:48:08;;;;;;;7.68;7.22;;;17.30;75.00;;;;;;5022560;28;20045;-65
2021/05/30 03:50:35;;;;;;;7.35;6.95;;;17.40;75.10;;;;;;5021548;28;20026;-66
2021/05/30 03:53:01;;;;;;;7.20;6.80;;;17.40;75.00;;;;;;5018740;28;20132;-67
2021/05/30 03:55:27;;;;;;;8.77;8.23;;;17.50;75.00;;;;;;5021943;28;20484;-65
2021/05/30 03:57:54;;;;;;;6.95;6.40;;;17.50;75.10;;;;;;5024063;28;20037;-65
2021/05/30 04:00:21;;;;;;;6.25;5.85;;;17.50;74.90;;;;;;5023593;28;20036;-65
2021/05/30 04:02:47;;;;;;;7.78;7.18;;;17.50;74.70;;;;;;5023755;28;20084;-65
2021/05/30 04:05:15;;;;;;;7.15;6.65;;;17.60;74.50;;;;;;5021877;28;20072;-65
2021/05/30 04:07:42;;;;;;;8.07;7.45;;;17.60;74.40;;;;;;5022384;28;20050;-65
2021/05/30 04:10:12;;;;;;;7.20;6.72;;;17.60;74.60;;;;;;5033521;28;20021;-77
2021/05/30 04:12:40;;;;;;;7.72;7.25;;;17.60;74.70;;;;;;5032283;28;20130;-73
2021/05/30 04:15:08;;;;;;;8.05;7.53;;;17.70;74.90;;;;;;5022652;28;20108;-72
2021/05/30 04:17:34;;;;;;;7.07;6.53;;;17.70;75.00;;;;;;5018275;28;20026;-76
2021/05/30 04:19:59;;;;;;;10.68;9.98;;;17.80;75.10;;;;;;5023372;28;20025;-72
2021/05/30 04:22:25;;;;;;;7.47;6.90;;;17.90;75.10;;;;;;5023400;28;20423;-72
2021/05/30 04:24:51;;;;;;;7.78;7.38;;;18.00;75.00;;;;;;5020387;28;20429;-73
2021/05/30 04:27:16;;;;;;;8.30;7.80;;;18.10;75.10;;;;;;5023255;28;20506;-70
2021/05/30 04:29:42;;;;;;;8.50;7.90;;;18.20;74.80;;;;;;5022979;28;20108;-75
2021/05/30 04:32:08;;;;;;;8.20;7.50;;;18.30;74.60;;;;;;5020359;28;20570;-72
2021/05/30 04:34:34;;;;;;;7.90;6.75;;;18.40;74.40;;;;;;5026325;28;20032;-74
2021/05/30 04:36:59;;;;;;;6.88;6.47;;;18.40;74.10;;;;;;5025005;28;20454;-75
2021/05/30 04:39:27;;;;;;;6.63;6.22;;;18.40;73.70;;;;;;5020988;28;20074;-73
2021/05/30 04:41:53;;;;;;;8.85;8.35;;;18.40;73.20;;;;;;5019602;28;20022;-72
2021/05/30 04:44:19;;;;;;;7.93;7.35;;;18.50;73.20;;;;;;5023632;28;20033;-72
2021/05/30 04:46:44;;;;;;;7.32;6.82;;;18.50;72.40;;;;;;5019957;28;20034;-77
2021/05/30 04:49:10;;;;;;;6.72;6.28;;;18.50;72.20;;;;;;5022566;28;20084;-75
2021/05/30 04:51:36;;;;;;;9.27;8.57;;;18.50;72.20;;;;;;5022898;28;20040;-74
2021/05/30 04:54:02;;;;;;;8.23;7.53;;;18.50;72.40;;;;;;5021264;28;20022;-74
2021/05/30 04:56:28;;;;;;;8.05;7.57;;;18.50;72.20;;;;;;5021531;28;20022;-73
2021/05/30 04:58:53;;;;;;;6.68;6.38;;;18.50;71.90;;;;;;5030722;28;20036;-73
2021/05/30 05:01:19;;;;;;;7.80;7.40;;;18.50;71.90;;;;;;5032400;28;20032;-77
2021/05/30 05:03:45;;;;;;;6.63;6.32;;;18.50;71.50;;;;;;5033598;28;20106;-76
2021/05/30 05:06:11;;;;;;;7.22;6.68;;;18.40;71.20;;;;;;5032085;28;20057;-74
2021/05/30 05:08:36;;;;;;;7.47;7.03;;;18.50;71.20;;;;;;5023452;28;20044;-72
2021/05/30 05:11:03;;;;;;;6.38;5.90;;;18.40;70.60;;;;;;5021503;28;20041;-75
2021/05/30 05:13:28;;;;;;;5.22;4.93;;;18.40;70.80;;;;;;5023841;28;20034;-77
2021/05/30 05:15:55;;;;;;;8.32;7.72;;;18.40;70.80;;;;;;5022373;28;20380;-74
2021/05/30 05:18:23;;;;;;;5.88;5.57;;;18.40;70.40;;;;;;5017886;28;20030;-76
2021/05/30 05:20:50;;;;;;;8.60;7.05;;;18.30;70.00;;;;;;5018098;28;20030;-76
2021/05/30 05:23:22;;;;;;;6.40;6.00;;;18.20;69.60;;;;;;5020191;28;20469;-72
2021/05/30 05:25:52;;;;;;;7.28;6.88;;;18.20;69.70;;;;;;5020420;28;20034;-75
2021/05/30 05:28:18;;;;;;;5.55;5.25;;;18.10;69.10;;;;;;5023011;28;20030;-75
2021/05/30 05:30:44;;;;;;;8.02;7.32;;;18.00;69.40;;;;;;5022094;28;20051;-78
2021/05/30 05:33:10;;;;;;;7.70;7.10;;;17.90;69.30;;;;;;5025214;28;20395;-76
2021/05/30 05:35:36;;;;;;;23.52;7.50;;;17.90;69.10;;;;;;5029221;28;20026;-78
2021/05/30 05:38:02;;;;;;;12.00;6.53;;;17.90;69.20;;;;;;5026447;28;20033;-71
2021/05/30 05:40:29;;;;;;;5.97;5.57;;;17.90;69.40;;;;;;5025672;28;20026;-79
2021/05/30 05:42:56;;;;;;;6.90;6.50;;;17.90;69.20;;;;;;5057599;28;20021;-77
2021/05/30 05:45:23;;;;;;;7.68;7.25;;;17.90;69.40;;;;;;5025346;28;20108;-74
2021/05/30 05:47:50;;;;;;;8.20;7.43;;;18.00;69.50;;;;;;5025372;28;20037;-76
2021/05/30 05:50:17;;;;;;;6.50;6.20;;;17.90;69.80;;;;;;5019409;28;20026;-75
2021/05/30 05:52:44;;;;;;;7.30;6.75;;;18.00;69.80;;;;;;5021936;28;20029;-74
2021/05/30 05:55:11;;;;;;;6.85;6.43;;;18.00;69.70;;;;;;5022627;28;20539;-74
2021/05/30 05:57:37;;;;;;;6.07;5.68;;;18.00;69.60;;;;;;5019161;28;20045;-73
2021/05/30 06:00:12;;;;;;;6.78;6.25;;;18.10;69.40;;;;;;5019500;28;20094;-69
2021/05/30 06:02:38;;;;;;;7.65;7.13;;;18.10;69.10;;;;;;5011369;28;20551;-72
2021/05/30 06:05:05;;;;;;;7.40;6.88;;;18.10;68.90;;;;;;5010255;28;20026;-69
2021/05/30 06:07:31;;;;;;;6.50;6.20;;;18.10;68.80;;;;;;5009189;28;20058;-72
2021/05/30 06:09:57;;;;;;;7.35;6.65;;;18.10;69.50;;;;;;5009937;28;20126;-76
2021/05/30 06:12:23;;;;;;;6.93;6.53;;;18.20;69.20;;;;;;5011137;28;20453;-73
2021/05/30 06:14:48;;;;;;;7.00;6.38;;;18.20;69.10;;;;;;5013913;28;20076;-75
2021/05/30 06:17:14;;;;;;;6.43;6.03;;;18.20;68.90;;;;;;5015264;28;20483;-70
2021/05/30 06:19:40;;;;;;;5.88;5.57;;;18.20;69.00;;;;;;5024843;28;20100;-72
2021/05/30 06:22:06;;;;;;;7.50;7.05;;;18.30;69.10;;;;;;5023903;28;20029;-71
2021/05/30 06:24:33;;;;;;;6.97;6.47;;;18.30;68.70;;;;;;5023149;28;20033;-71
2021/05/30 06:26:59;;;;;;;7.18;6.68;;;18.40;69.00;;;;;;5024701;28;20034;-70
2021/05/30 06:29:26;;;;;;;7.80;7.30;;;18.50;69.00;;;;;;5023515;28;20026;-72
2021/05/30 06:31:52;;;;;;;6.65;6.15;;;18.50;68.80;;;;;;5024149;28;20100;-71
2021/05/30 06:34:18;;;;;;;7.22;6.82;;;18.60;68.80;;;;;;5025950;28;20030;-72
2021/05/30 06:36:45;;;;;;;8.52;6.55;;;18.70;68.90;;;;;;5023193;28;20084;-75
2021/05/30 06:39:11;;;;;;;6.32;6.03;;;18.80;68.60;;;;;;5023048;28;20053;-77
2021/05/30 06:41:38;;;;;;;8.23;7.63;;;18.80;69.00;;;;;;5021105;28;20041;-74
2021/05/30 06:44:05;;;;;;;8.20;7.70;;;18.80;68.50;;;;;;5025164;28;20021;-73
2021/05/30 06:46:31;;;;;;;7.35;6.95;;;18.80;68.20;;;;;;5022153;28;20037;-74
2021/05/30 06:48:57;;;;;;;8.02;7.53;;;18.80;68.20;;;;;;5023212;28;20128;-74
2021/05/30 06:51:26;;;;;;;7.13;6.63;;;18.80;68.20;;;;;;5016449;28;20052;-75
2021/05/30 06:53:52;;;;;;;6.70;6.30;;;18.80;68.30;;;;;;5013288;28;20038;-73
2021/05/30 06:56:18;;;;;;;7.10;6.63;;;18.90;68.40;;;;;;5012278;28;20032;-75
2021/05/30 06:58:44;;;;;;;6.45;6.00;;;18.90;68.30;;;;;;5017891;28;20112;-74
2021/05/30 07:01:11;;;;;;;5.78;5.45;;;18.90;67.70;;;;;;5015612;28;20021;-75
2021/05/30 07:03:38;;;;;;;6.95;6.55;;;18.80;67.50;;;;;;5015482;28;20030;-74
2021/05/30 07:06:04;;;;;;;5.90;5.57;;;18.80;67.50;;;;;;5015467;28;20140;-71
2021/05/30 07:08:30;;;;;;;7.75;7.15;;;18.70;67.40;;;;;;5016053;28;20084;-74
2021/05/30 07:10:56;;;;;;;6.38;5.97;;;18.70;67.30;;;;;;5017344;28;20472;-72
2021/05/30 07:13:22;;;;;;;5.95;5.57;;;18.60;66.50;;;;;;5016111;28;20050;-72
2021/05/30 07:15:52;;;;;;;6.38;5.97;;;18.60;66.40;;;;;;5016007;28;20026;-72
2021/05/30 07:18:22;;;;;;;6.25;5.85;;;18.60;66.60;;;;;;5017107;28;20021;-72
2021/05/30 07:20:48;;;;;;;6.15;5.75;;;18.60;66.50;;;;;;5017330;28;20022;-72
2021/05/30 07:23:15;;;;;;;7.07;6.60;;;18.70;66.80;;;;;;5017243;28;20038;-71
2021/05/30 07:25:41;;;;;;;5.85;5.55;;;18.80;66.60;;;;;;5016365;28;20365;-72
2021/05/30 07:28:08;;;;;;;5.72;5.43;;;18.70;66.60;;;;;;5004831;28;20042;-74
2021/05/30 07:30:35;;;;;;;6.47;6.15;;;18.70;66.30;;;;;;5017818;28;20065;-71
2021/05/30 07:33:01;;;;;;;7.22;6.65;;;18.70;66.70;;;;;;5021510;28;20026;-70
2021/05/30 07:35:28;;;;;;;5.88;5.53;;;18.80;66.40;;;;;;5020728;28;20080;-71
2021/05/30 07:37:54;;;;;;;5.85;5.55;;;18.80;66.50;;;;;;5019076;28;20075;-71
2021/05/30 07:40:20;;;;;;;5.88;5.47;;;18.80;66.10;;;;;;5022220;28;20168;-71
2021/05/30 07:42:46;;;;;;;11.13;5.63;;;18.80;66.10;;;;;;5022998;28;20042;-69
2021/05/30 07:45:12;;;;;;;6.72;6.32;;;18.90;66.30;;;;;;5020988;28;20053;-71
2021/05/30 07:47:39;;;;;;;6.32;5.93;;;19.00;66.20;;;;;;5023896;28;20388;-70
2021/05/30 07:50:05;;;;;;;6.82;6.22;;;19.00;65.80;;;;;;5030550;28;20493;-72
2021/05/30 07:52:31;;;;;;;6.28;5.90;;;19.20;66.20;;;;;;5029374;28;20072;-69
2021/05/30 07:54:56;;;;;;;5.20;4.90;;;19.30;66.00;;;;;;5028878;28;20436;-69
2021/05/30 07:57:22;;;;;;;6.40;5.90;;;19.30;65.70;;;;;;5023224;28;20022;-69
2021/05/30 07:59:48;;;;;;;6.40;6.00;;;19.40;66.00;;;;;;5022539;28;20029;-71
2021/05/30 08:02:13;;;;;;;6.32;5.93;;;19.60;65.90;;;;;;5024315;28;20551;-71
2021/05/30 08:04:39;;;;;;;5.90;5.50;;;19.70;65.80;;;;;;5018614;28;20037;-70
2021/05/30 08:07:05;;;;;;;6.43;6.03;;;19.80;65.50;;;;;;5012798;28;20476;-71
2021/05/30 08:09:30;;;;;;;7.90;6.97;;;19.90;65.50;;;;;;5015119;28;20472;-70
2021/05/30 08:11:58;;;;;;;6.40;5.80;;;20.00;65.00;;;;;;5015435;28;20108;-73
2021/05/30 08:14:25;;;;;;;6.20;5.80;;;20.00;64.80;;;;;;5015046;28;20026;-78
2021/05/30 08:16:51;;;;;;;4.78;4.47;;;19.90;64.60;;;;;;5014023;28;20029;-80
2021/05/30 08:19:16;;;;;;;5.93;5.63;;;20.10;64.90;;;;;;5013861;28;20030;-72
2021/05/30 08:21:43;;;;;;;6.00;5.70;;;20.30;64.90;;;;;;5014675;28;20026;-74
2021/05/30 08:24:09;;;;;;;6.30;5.90;;;20.30;64.70;;;;;;5013100;28;20052;-75
2021/05/30 08:26:35;;;;;;;5.75;5.35;;;20.40;64.20;;;;;;5012882;28;20128;-70
2021/05/30 08:29:01;;;;;;;5.68;5.38;;;20.30;64.40;;;;;;5013871;28;20110;-73
2021/05/30 08:31:26;;;;;;;5.63;5.18;;;20.20;63.30;;;;;;5012389;28;20057;-76
2021/05/30 08:33:52;;;;;;;5.45;5.15;;;20.30;63.40;;;;;;5011999;28;20026;-78
2021/05/30 08:36:18;;;;;;;6.10;5.65;;;20.20;63.50;;;;;;5021911;28;20033;-77
2021/05/30 08:38:44;;;;;;;5.65;5.25;;;20.30;63.60;;;;;;5033801;28;20029;-71
2021/05/30 08:41:10;;;;;;;5.57;5.28;;;20.40;63.60;;;;;;5032835;28;20043;-80
2021/05/30 08:43:36;;;;;;;7.00;6.55;;;20.50;63.70;;;;;;5032520;28;20029;-74
2021/05/30 08:46:02;;;;;;;6.10;5.70;;;20.70;63.70;;;;;;5032713;28;20045;-76
2021/05/30 08:48:27;;;;;;;5.63;5.32;;;20.80;63.30;;;;;;5032502;28;20029;-78
2021/05/30 08:51:05;;;;;;;5.93;5.47;;;20.80;63.00;;;;;;5033950;28;20021;-79
2021/05/30 08:53:37;;;;;;;5.00;4.60;;;20.80;62.60;;;;;;5032732;28;20021;-70
2021/05/30 08:56:04;;;;;;;5.78;5.38;;;20.70;61.90;;;;;;5032305;28;20046;-68
2021/05/30 08:58:50;;;;;;;4.82;4.55;;;20.60;62.40;;;;;;5033619;28;20361;-71
2021/05/30 09:01:17;;;;;;;6.55;6.03;;;20.70;62.50;;;;;;5033307;28;20026;-69
2021/05/30 09:04:09;;;;;;;5.43;5.07;;;20.70;62.50;;;;;;5033475;28;20107;-71
2021/05/30 09:06:40;;;;;;;7.65;6.18;;;20.80;62.30;;;;;;5032213;28;20053;-74
2021/05/30 09:09:10;;;;;;;4.85;4.55;;;20.90;62.40;;;;;;5033706;28;20079;-71
2021/05/30 09:11:54;;;;;;;4.60;4.38;;;21.00;62.10;;;;;;5033570;28;20022;-70
2021/05/30 09:14:24;;;;;;;5.47;5.18;;;21.10;61.80;;;;;;5033430;28;20023;-71
2021/05/30 09:17:00;;;;;;;5.20;4.90;;;21.10;61.70;;;;;;5031908;28;20037;-75
2021/05/30 09:19:50;;;;;;;6.05;5.65;;;21.00;61.70;;;;;;5032956;28;20035;-73
2021/05/30 09:22:35;;;;;;;6.20;5.80;;;21.00;61.70;;;;;;5032045;28;20038;-69
2021/05/30 09:25:09;;;;;;;5.43;4.97;;;21.10;61.70;;;;;;5033213;28;20021;-72
2021/05/30 09:28:00;;;;;;;5.53;5.13;;;21.20;61.80;;;;;;5032170;28;20029;-73
2021/05/30 09:30:34;;;;;;;5.55;5.18;;;21.30;61.70;;;;;;5059255;28;20034;-72
2021/05/30 09:33:03;;;;;;;6.05;5.68;;;21.30;61.60;;;;;;5030289;28;20037;-69
2021/05/30 09:35:43;;;;;;;4.97;4.65;;;21.30;61.40;;;;;;5016754;28;20029;-69
2021/05/30 09:38:28;;;;;;;5.35;4.97;;;21.40;61.00;;;;;;5020415;28;20052;-70
2021/05/30 09:41:14;;;;;;;4.97;4.68;;;21.50;61.10;;;;;;5021481;28;20033;-70
2021/05/30 09:43:54;;;;;;;5.55;5.25;;;21.50;61.00;;;;;;5026885;28;20022;-63
2021/05/30 09:46:22;;;;;;;4.88;4.65;;;21.40;60.30;;;;;;5033340;28;20117;-70
2021/05/30 09:48:54;;;;;;;5.13;4.80;;;21.40;60.70;;;;;;5020541;28;20034;-69
2021/05/30 09:51:22;;;;;;;7.30;6.70;;;21.30;60.80;;;;;;5015923;28;20022;-73
2021/05/30 09:53:48;;;;;;;5.75;5.35;;;21.40;60.80;;;;;;5017196;28;20068;-71
2021/05/30 09:56:35;;;;;;;5.43;5.13;;;21.60;60.40;;;;;;5017115;28;20057;-68
2021/05/30 09:59:03;;;;;;;7.30;6.55;;;21.50;60.20;;;;;;5016004;28;20084;-71
2021/05/30 10:01:58;;;;;;;5.05;4.75;;;21.50;60.00;;;;;;5017292;28;20022;-70
2021/05/30 10:04:27;;;;;;;5.38;5.07;;;21.50;60.10;;;;;;5015740;28;20026;-70
2021/05/30 10:06:55;;;;;;;5.50;5.15;;;21.60;60.10;;;;;;5015432;28;20068;-71
2021/05/30 10:09:21;;;;;;;5.43;5.03;;;21.50;60.00;;;;;;5016827;28;20028;-75
2021/05/30 10:11:47;;;;;;;4.57;4.38;;;21.50;60.00;;;;;;5016073;28;20026;-70
2021/05/30 10:14:13;;;;;;;5.70;5.20;;;21.50;60.00;;;;;;5017352;28;20480;-72
2021/05/30 10:16:39;;;;;;;5.50;4.65;;;21.50;59.90;;;;;;5016974;28;20026;-73
2021/05/30 10:19:31;;;;;;;4.43;4.13;;;21.50;60.00;;;;;;5016667;28;20026;-72
2021/05/30 10:21:59;;;;;;;5.15;4.85;;;21.50;59.80;;;;;;5015254;28;20053;-76
2021/05/30 10:24:25;;;;;;;5.78;5.38;;;21.30;59.10;;;;;;5015691;28;20536;-72
2021/05/30 10:27:20;;;;;;;5.53;5.15;;;21.30;59.50;;;;;;5016343;28;20063;-67
2021/05/30 10:30:07;;;;;;;5.57;5.20;;;21.20;59.60;;;;;;5015169;28;20036;-70
2021/05/30 10:32:35;;;;;;;5.07;4.78;;;21.30;59.80;;;;;;5015570;28;20125;-72
2021/05/30 10:35:21;;;;;;;5.78;5.47;;;21.30;59.50;;;;;;5015209;28;20026;-70
2021/05/30 10:37:49;;;;;;;5.68;5.18;;;21.30;59.80;;;;;;5017298;28;20028;-70
2021/05/30 10:40:21;;;;;;;5.05;4.65;;;21.40;59.70;;;;;;5019047;28;20026;-68
2021/05/30 10:43:09;;;;;;;5.13;4.82;;;21.40;59.80;;;;;;5033029;28;20034;-68
2021/05/30 10:45:44;;;;;;;5.47;5.03;;;21.60;59.80;;;;;;5034385;28;20041;-69
2021/05/30 10:48:12;;;;;;;5.57;5.18;;;21.70;59.40;;;;;;5035556;28;20057;-70
2021/05/30 10:53:38;;;;;;;4.60;4.30;;;21.80;59.20;;;;;;5035552;28;20030;-68
2021/05/30 10:56:39;;;;;;;4.57;4.38;;;21.90;58.70;;;;;;5034604;28;20092;-68
2021/05/30 10:59:04;;;;;;;5.63;5.22;;;21.90;58.70;;;;;;5019217;28;20025;-69
2021/05/30 11:04:23;;;;;;;5.00;4.70;;;22.00;58.20;;;;;;5022301;28;20373;-69
2021/05/30 11:07:08;;;;;;;5.30;4.90;;;22.00;58.50;;;;;;5021938;28;20066;-67
2021/05/30 11:10:02;;;;;;;5.90;5.47;;;22.00;58.00;;;;;;5023157;28;20025;-69
2021/05/30 11:12:32;;;;;;;6.70;5.53;;;21.90;58.10;;;;;;5020197;28;20404;-70
2021/05/30 11:17:36;;;;;;;12.68;7.50;;;21.80;57.90;;;;;;5022390;28;20036;-67
2021/05/30 11:20:03;;;;;;;9.45;6.90;;;21.90;58.20;;;;;;5022632;28;20021;-69
2021/05/30 11:22:52;;;;;;;5.30;4.80;;;22.00;58.40;;;;;;5024212;28;20028;-69
2021/05/30 11:25:24;;;;;;;6.57;6.18;;;22.00;58.20;;;;;;5018518;28;20030;-70
2021/05/30 11:27:51;;;;;;;7.13;5.18;;;22.10;58.10;;;;;;5021703;28;20112;-66
2021/05/30 11:30:51;;;;;;;4.28;4.03;;;22.10;57.90;;;;;;4993112;28;20505;-69
2021/05/30 11:33:24;;;;;;;4.38;4.18;;;22.20;57.40;;;;;;4993888;28;20265;-67
2021/05/30 11:35:52;;;;;;;4.72;4.43;;;22.10;57.30;;;;;;4995785;28;20031;-67
2021/05/30 11:38:19;;;;;;;4.32;4.03;;;22.20;57.40;;;;;;4995092;28;20509;-68
2021/05/30 11:40:44;;;;;;;5.78;5.18;;;22.20;57.20;;;;;;5011191;28;20030;-68
2021/05/30 11:43:18;;;;;;;5.22;4.82;;;22.30;56.90;;;;;;5024018;28;20051;-66
2021/05/30 11:45:46;;;;;;;4.05;3.75;;;22.30;56.70;;;;;;5022969;28;20036;-67
2021/05/30 11:48:17;;;;;;;6.53;5.55;;;22.40;56.90;;;;;;5021489;28;20112;-67
2021/05/30 11:50:55;;;;;;;5.63;4.95;;;22.60;57.00;;;;;;5020164;28;20116;-72
2021/05/30 11:53:35;;;;;;;5.40;5.00;;;22.80;57.00;;;;;;5014102;28;20042;-72
2021/05/30 11:56:03;;;;;;;4.88;4.57;;;22.90;56.70;;;;;;5015015;28;20536;-72
2021/05/30 11:58:29;;;;;;;5.00;4.45;;;23.00;56.60;;;;;;5014247;28;20080;-71
2021/05/30 12:01:03;;;;;;;7.30;6.70;;;23.10;56.50;;;;;;5013141;28;20469;-72
2021/05/30 12:03:29;;;;;;;4.80;3.85;;;23.10;56.20;;;;;;5024677;28;20028;-69
2021/05/30 12:05:57;;;;;;;5.43;4.97;;;23.20;56.10;;;;;;5021858;28;20053;-66
2021/05/30 12:08:23;;;;;;;4.45;4.25;;;23.30;55.70;;;;;;5027819;28;20104;-68
2021/05/30 12:11:11;;;;;;;4.85;4.55;;;23.50;55.60;;;;;;5026347;28;20207;-69
2021/05/30 12:13:38;;;;;;;5.53;5.13;;;24.00;55.10;;;;;;5028783;28;20072;-69
2021/05/30 12:16:19;;;;;;;3.88;3.67;;;24.50;54.50;;;;;;5027122;28;20025;-68
2021/05/30 12:18:55;;;;;;;3.50;3.20;;;25.20;53.70;;;;;;5027315;28;20030;-69
2021/05/30 12:21:27;;;;;;;4.47;4.03;;;25.60;53.10;;;;;;5012361;28;20125;-65
2021/05/30 12:23:53;;;;;;;4.80;4.00;;;25.60;53.10;;;;;;5017478;28;20465;-69
2021/05/30 12:26:20;;;;;;;4.78;4.32;;;25.50;53.40;;;;;;5020828;28;20487;-67
2021/05/30 12:28:46;;;;;;;4.20;3.88;;;25.20;53.60;;;;;;5021959;28;20045;-68
2021/05/30 12:31:17;;;;;;;4.15;3.85;;;25.00;53.70;;;;;;5020768;28;20022;-69
2021/05/30 12:33:55;;;;;;;4.85;4.45;;;24.80;54.00;;;;;;5019734;28;20159;-71
2021/05/30 12:36:37;;;;;;;4.78;4.38;;;24.80;54.20;;;;;;5011189;28;20030;-68
2021/05/30 12:39:11;;;;;;;4.60;4.30;;;24.60;54.40;;;;;;5011120;28;20022;-67
2021/05/30 12:41:48;;;;;;;5.32;4.65;;;24.50;54.80;;;;;;5010665;28;20030;-66
2021/05/30 12:44:16;;;;;;;4.68;4.38;;;24.40;54.70;;;;;;5009569;28;20018;-72
2021/05/30 12:47:00;;;;;;;4.68;4.13;;;24.40;54.80;;;;;;5012254;28;20034;-69
2021/05/30 12:49:26;;;;;;;4.13;3.83;;;24.40;54.60;;;;;;5013835;28;20026;-67
2021/05/30 12:52:15;;;;;;;9.25;4.82;;;24.40;54.60;;;;;;5019035;28;20030;-68
2021/05/30 12:54:41;;;;;;;5.13;4.00;;;24.30;54.50;;;;;;5020415;28;20025;-69
2021/05/30 12:57:08;;;;;;;4.60;4.40;;;24.20;54.40;;;;;;5021479;28;20048;-67
2021/05/30 12:59:47;;;;;;;3.92;3.63;;;24.10;54.40;;;;;;5016098;28;20022;-67
2021/05/30 13:02:16;;;;;;;6.00;5.50;;;23.90;54.30;;;;;;5018450;28;20121;-66